Aviation Digital Data Service (ADDS)

Output produced by TAFs form (0103 UTC 22 September 2017)
found at http://www.aviationweather.gov/adds/tafs/
 
METAR text: RJKA 220000Z 23010KT 9999 FEW015 BKN150 30/26 Q1010
Conditions at: RJKA (AMAMI AIRPORT , JP) observed 0000 UTC 22 September 2017
Temperature: 30.0°C (86°F)
Dewpoint: 26.0°C (79°F) [RH = 79%]
Pressure (altimeter): 29.82 inches Hg (1010.0 mb)
Winds: from the SW (230 degrees) at 12 MPH (10 knots; 5.2 m/s)
Visibility: 6 or more miles (10+ km)
Ceiling: 15000 feet AGL
Clouds: few clouds at 1500 feet AGL
broken clouds at 15000 feet AGL
Weather: no significant weather observed at this time